Tiempo atmosférico en la estación meteorológica de Guadalcanal, Sevilla (745 m.)



Fecha
DESCASC
Temp. máxima en grados centígrados (hora)
DESCASC
Temp. mínima en grados centígrados (hora)
DESCASC
Temp. media en grados centígrados
DESCASC
Racha de viento máxima en m/sg (hora)
DESCASC
Velocidad máxima media en intervalos de 10 minutos(hora)
DESCASC
Precipitaciones diarias en mm
DESCASC
Precipitaciones de 00:00 a 06:00 en mm
DESCASC
Precipitaciones de 06:00 a 12:00 en mm
DESCASC
Precipitaciones de 12:00 a 18:00 en mm
DESCASC
Precipitaciones de 18:00 a 24:00 en mm
DESCASC
02-04-2020 12.7 (19:30) 4.4 (06:50) 8.5 9.17 (00:10) 5.28 (00:30) 8.8 8.8 0 0 0
01-04-2020 11.7 (15:00) 3.2 (06:50) 7.4 9.17 (23:50) 5.28 (23:50) 0.2 0 0 0 0.2
31-03-2020 11.8 (17:30) 7.6 (00:00) 9.7 13.61 (08:00) 7.78 (07:10) 14.4 4.6 2.8 6.4 0.6
30-03-2020 13.4 (15:50) 5.7 (07:00) 9.5 8.89 (17:10) 4.72 (15:20) 6 0 0 2.2 3.8
29-03-2020 15.2 (17:10) 5.7 (00:00) 10.4 5 (09:40) 3.61 (09:40) 0 0 0 0 0
28-03-2020 14.1 (16:00) 2.5 (00:00) 8.3 6.39 (01:00) 5 (01:30) 0 0 0 0 0
27-03-2020 13.3 (14:20) 2.6 (00:00) 8 7.78 (17:40) 4.72 (23:00) 0 0 0 0 0
26-03-2020 17.1 (15:40) 7.5 (00:00) 12.3 9.72 (18:10) 5.28 (16:00) 0 0 0 0 0
25-03-2020 16.9 (15:40) 6.7 (00:00) 11.8 7.78 (23:50) 5 (04:20) 0 0 0 0 0
24-03-2020 15.5 (16:10) 6 (00:00) 10.8 10 (10:00) 5.28 (22:40) 0 0 0 0 0
23-03-2020 12.9 (15:00) 5.8 (00:00) 9.3 9.17 (18:50) 4.17 (13:20) 11.4 0.6 0 7 3.8
22-03-2020 11.1 (13:30) 3.8 (03:30) 7.5 10.28 (15:40) 3.89 (15:40) 1 0 0 1 0
21-03-2020 10 (00:00) 4.5 (00:00) 7.3 9.72 (03:10) 5.56 (11:40) 32.4 18.8 0 12.2 1.4
20-03-2020 16.4 (17:10) 9.4 (00:00) 12.9 10 (22:50) 5.56 (23:10) 2 0 0 0 2
19-03-2020 16.9 (16:20) 8.1 (00:00) 12.5 6.67 (10:50) 5 (10:50) 0 0 0 0 0
18-03-2020 20.3 (16:40) 8.4 (00:00) 14.3 9.72 (05:20) 6.11 (05:10) 0 0 0 0 0
17-03-2020 15.6 (15:40) 2.5 (00:00) 9.1 9.72 (14:00) 5 (14:00) 1.4 0.6 0.8 0 0
16-03-2020 8.9 (00:00) 2.6 (00:00) 5.7 12.78 (03:50) 6.67 (03:20) 1.6 0 0 0 1.6
15-03-2020 19.8 (16:00) 8.9 (00:00) 14.3 10 (17:50) 6.11 (17:20) 0.2 0 0 0 0.2
14-03-2020 22 (15:20) 9.3 (00:00) 15.7 6.67 (03:50) 4.17 (03:50) 0 0 0 0 0
13-03-2020 21.5 (14:20) 9.2 (07:20) 15.3 6.67 (16:00) 3.61 (23:40) 0 0 0 0 0
12-03-2020 22.7 (15:30) 12.1 (00:00) 17.4 10 (13:20) 6.39 (13:40) 0 0 0 0 0
11-03-2020 26.3 (14:30) 12.5 (00:00) 19.4 6.94 (14:40) 4.44 (05:00) 0 0 0 0 0
10-03-2020 23.5 (15:10) 9.9 (00:00) 16.7 6.67 (07:10) 3.89 (07:10) 0 0 0 0 0
09-03-2020 17.7 (15:50) 6.1 (00:00) 11.9 8.89 (01:50) 5.56 (02:10) 0 0 0 0 0
08-03-2020 19.6 (15:50) 5.8 (00:00) 12.7 9.72 (22:00) 6.67 (21:50) 0 0 0 0 0
07-03-2020 16.3 (17:10) 3.7 (00:00) 10 11.11 (02:10) 6.39 (02:10) 0 0 0 0 0
06-03-2020 13.6 (17:10) 4.4 (00:00) 9 10.28 (10:30) 5.56 (23:10) 0 0 0 0 0
05-03-2020 14 (15:50) 7.2 (00:00) 10.6 11.11 (15:50) 4.72 (17:40) 0 0 0 0 0

Gráficas

Temp. máximas Temp. mínimas Temp. medias Precipitaciones Rachas de viento máximas Velocidades máximas media en intervalos de 10 minutos

Datos horarios

Fecha y hora oficial Temperatura (ºC) Velocidad del viento (km/h) Dirección del viento Racha (km/h) Dirección de racha Precipitación (mm) Presión (hPa) Tendencia (hPa) Humedad (%)
2020-04-03 23:00:00 10.5 0 Calma 8 Sudeste 0 -- -- 67
2020-04-03 22:00:00 11.6 3 Este 10 Sudeste 0 -- -- 61
2020-04-03 21:00:00 13.4 3 Sudeste 13 Sudoeste 0 -- -- 65
2020-04-03 20:00:00 16.7 9 Sudoeste 15 Sudeste 0 -- -- 54
2020-04-03 19:00:00 16.4 7 Sur 13 Sur 0 -- -- 58
2020-04-03 18:00:00 17.1 5 Sudeste 15 Sudeste 0 -- -- 54
2020-04-03 17:00:00 17.8 5 Sur 13 Este 0 -- -- 53
2020-04-03 16:00:00 17.2 5 Sur 16 Sur 0 -- -- 57
2020-04-03 15:00:00 16.1 5 Sur 14 Sur 0 -- -- 60
2020-04-03 14:00:00 16.3 6 Sur 18 Sudeste 0 -- -- 56
2020-04-03 13:00:00 14.6 6 Sudoeste 14 Sur 0 -- -- 57
2020-04-03 12:00:00 14.1 8 Sur 15 Sur 0 -- -- 69
2020-04-03 11:00:00 12.2 3 Sur 9 Sudeste 0 -- -- 76
2020-04-03 10:00:00 10.5 4 Nordeste 10 Norte 0 -- -- 83
2020-04-03 09:00:00 8 7 Nordeste 13 Norte 0 -- -- 89
2020-04-03 08:00:00 8 9 Nordeste 12 Nordeste 0 -- -- 88
2020-04-03 07:00:00 7 4 Nordeste 10 Norte 0 -- -- 89
2020-04-03 06:00:00 9 8 Norte 16 Norte 0 -- -- 84
2020-04-03 05:00:00 9.8 9 Norte 22 Noroeste 0 -- -- 79
2020-04-03 04:00:00 9.9 10 Norte 27 Norte 0 -- -- 80
2020-04-03 03:00:00 9.8 6 Noroeste 20 Noroeste 0 -- -- 78
2020-04-03 02:00:00 9.2 6 Oeste 17 Norte 0 -- -- 73
2020-04-03 01:00:00 9.7 6 Noroeste 19 Noroeste 0 -- -- 67
2020-04-03 00:00:00 9.7 8 Oeste 19 Noroeste 0 -- -- 71
2020-04-02 23:00:00 9.7 5 Noroeste 16 Norte 0 -- -- 74
2020-04-02 22:00:00 9.8 5 Noroeste 17 Noroeste 0 -- -- 74
2020-04-02 21:00:00 10 5 Noroeste 13 Norte 0 -- -- 73
2020-04-02 20:00:00 12.2 8 Norte 19 Norte 0 -- -- 64
2020-04-02 19:00:00 12 8 Nordeste 23 Nordeste 0 -- -- 67
2020-04-02 18:00:00 11.7 13 Nordeste 24 Norte 0 -- -- 67
2020-04-02 17:00:00 10.9 10 Nordeste 24 Norte 0 -- -- 77
2020-04-02 16:00:00 10.9 14 Norte 26 Nordeste 0 -- -- 72
2020-04-02 15:00:00 10.1 11 Nordeste 25 Nordeste 0 -- -- 78
2020-04-02 14:00:00 8.8 10 Nordeste 22 Nordeste 0 -- -- 80
2020-04-02 13:00:00 8.6 12 Norte 23 Norte 0 -- -- 85
2020-04-02 12:00:00 7.7 13 Nordeste 26 Norte 0 -- -- 88
2020-04-02 11:00:00 6.2 10 Nordeste 19 Nordeste 0 -- -- 97
2020-04-02 10:00:00 5.2 12 Norte 19 Norte 0 -- -- 98
2020-04-02 09:00:00 4.7 8 Nordeste 17 Norte 0 -- -- 99
2020-04-02 08:00:00 4.7 10 Norte 16 Norte 0 -- -- 98
2020-04-02 07:00:00 4.7 8 Norte 14 Norte 0 -- -- 97
2020-04-02 06:00:00 5.7 2 Noroeste 5 Sudoeste 0 -- -- 98
2020-04-02 05:00:00 5.8 0 Calma 6 Sudoeste 0 -- -- 98
2020-04-02 04:00:00 5.8 4 Sudoeste 16 Sudoeste 0.8 -- -- 98
2020-04-02 03:00:00 6.3 7 Sudoeste 19 Sudoeste 3 -- -- 98
2020-04-02 02:00:00 6.8 13 Sudoeste 29 Sur 4.8 -- -- 98
2020-04-02 01:00:00 7 15 Sudoeste 33 Sudoeste 0.2 -- -- 96
2020-04-02 00:00:00 7.4 18 Sur 33 Sudoeste 0 -- -- 94
2020-04-01 23:00:00 7.2 17 Sur 27 Sur 0 -- -- 95
2020-04-01 22:00:00 7.2 18 Sudoeste 30 Sur 0 -- -- 91
2020-04-01 21:00:00 7.5 12 Sudoeste 23 Sudoeste 0 -- -- 88
2020-04-01 20:00:00 8.4 12 Sudoeste 21 Sur 0 -- -- 83
2020-04-01 19:00:00 7.8 9 Sudoeste 22 Sudoeste 0.2 -- -- 89
2020-04-01 18:00:00 8.3 11 Sudoeste 18 Sudoeste 0 -- -- 84
2020-04-01 17:00:00 7.8 11 Sudoeste 23 Sudoeste 0 -- -- 90
2020-04-01 16:00:00 8.5 15 Sudoeste 31 Sudoeste 0 -- -- 83
2020-04-01 15:00:00 11.7 12 Sudoeste 24 Sudoeste 0 -- -- 64
2020-04-01 14:00:00 11.4 13 Sudoeste 26 Sur 0 -- -- 61
2020-04-01 13:00:00 10.6 11 Sudoeste 23 Sudoeste 0 -- -- 67
2020-04-01 12:00:00 8.6 10 Sudoeste 19 Sudoeste 0 -- -- 72
2020-04-01 11:00:00 7 9 Sudoeste 16 Sudoeste 0 -- -- 80
2020-04-01 10:00:00 6.1 9 Sudoeste 18 Sur 0 -- -- 90
2020-04-01 09:00:00 5 4 Sudoeste 9 Sudoeste 0 -- -- 98
2020-04-01 08:00:00 4.1 2 Sur 6 Sur 0 -- -- 98
2020-04-01 07:00:00 3.4 0 Calma 6 Norte 0 -- -- 98
2020-04-01 06:00:00 3.6 3 Nordeste 6 Norte 0 -- -- 97
2020-04-01 05:00:00 4 4 Norte 10 Noroeste 0 -- -- 96
2020-04-01 04:00:00 4.6 0 Calma 4 Sur 0 -- -- 96
2020-04-01 03:00:00 5.9 3 Sudoeste 9 Oeste 0 -- -- 95
2020-04-01 02:00:00 6.5 3 Oeste 16 Oeste 0 -- -- 95
2020-04-01 01:00:00 7.3 7 Noroeste 15 Noroeste 0 -- -- 96
2020-04-01 00:00:00 8.5 5 Oeste 14 Sudoeste 0 -- -- 97
2020-03-31 23:00:00 8.7 6 Sur 10 Sur 0 -- -- 98
2020-03-31 22:00:00 8.7 4 Sudoeste 13 Sudoeste 0 -- -- 97
2020-03-31 21:00:00 9.3 7 Sudoeste 15 Sudoeste 0 -- -- 97
2020-03-31 20:00:00 9.6 10 Sudoeste 22 Sudoeste 0.4 -- -- 96
2020-03-31 19:00:00 9.5 9 Sudoeste 23 Sudoeste 0.2 -- -- 94
2020-03-31 18:00:00 10.6 14 Oeste 33 Sudoeste 0.4 -- -- 91
2020-03-31 17:00:00 10.5 18 Sudoeste 40 Oeste 4.4 -- -- 97
2020-03-31 16:00:00 10.1 16 Sudoeste 36 Sudoeste 0.6 -- -- 93
2020-03-31 15:00:00 10.4 16 Sudoeste 36 Sur 1 -- -- 94
2020-03-31 14:00:00 10.7 23 Sur 42 Oeste 0 -- -- 88
2020-03-31 13:00:00 10.5 16 Sudoeste 35 Sudoeste 0 -- -- 88
2020-03-31 12:00:00 9.7 19 Sudoeste 33 Sudoeste 0 -- -- 93
2020-03-31 11:00:00 8.7 17 Sudoeste 32 Sudoeste 0 -- -- 97
2020-03-31 10:00:00 8.1 20 Sudoeste 39 Sudoeste 0 -- -- 98
2020-03-31 09:00:00 7.9 21 Sudoeste 37 Sudoeste 0 -- -- 98
2020-03-31 08:00:00 8 28 Sudoeste 49 Sudoeste 0.2 -- -- 98
2020-03-31 07:00:00 8.1 24 Sur 48 Sur 2.6 -- -- 98
2020-03-31 06:00:00 7.7 15 Sur 29 Sudeste 3.2 -- -- 97
2020-03-31 05:00:00 7.7 10 Sudeste 28 Sudeste 0.8 -- -- 97
2020-03-31 04:00:00 7.6 16 Sur 29 Sur 0.6 -- -- 97
2020-03-31 03:00:00 7.6 13 Sur 24 Sur 0 -- -- 96
2020-03-31 02:00:00 7.6 13 Sur 29 Sudeste 0 -- -- 96
2020-03-31 01:00:00 7.7 16 Sur 31 Sur 0 -- -- 94
2020-03-31 00:00:00 7.6 16 Sur 28 Sur 0 -- -- 90
2020-03-30 23:00:00 7.4 6 Sur 15 Sur 0 -- -- 92
2020-03-30 22:00:00 7.3 6 Sur 13 Sudoeste 0 -- -- 94
2020-03-30 21:00:00 7.4 6 Sudoeste 13 Sur 0.6 -- -- 94
2020-03-30 20:00:00 8 8 Sudoeste 14 Sudoeste 0.6 -- -- 96
2020-03-30 19:00:00 8.2 6 Sudoeste 18 Oeste 2.6 -- -- 95
2020-03-30 18:00:00 8.5 13 Oeste 32 Sudoeste 2.2 -- -- 91
2020-03-30 17:00:00 12.1 16 Sudoeste 24 Sudoeste 0 -- -- 71
2020-03-30 16:00:00 13.2 12 Sudoeste 27 Sudoeste 0 -- -- 61
2020-03-30 15:00:00 13.1 14 Sudoeste 26 Sudoeste 0 -- -- 69
2020-03-30 14:00:00 12.6 12 Sudoeste 21 Sudoeste 0 -- -- 76
2020-03-30 13:00:00 11.9 8 Sudoeste 17 Sudoeste 0 -- -- 81
2020-03-30 12:00:00 11.9 7 Sudoeste 14 Oeste 0 -- -- 79
2020-03-30 11:00:00 10.6 4 Sudoeste 7 Sudoeste 0 -- -- 84
2020-03-30 10:00:00 9.2 2 Sur 5 Sur 0 -- -- 91
2020-03-30 09:00:00 7.8 0 Calma 2 Sur 0 -- -- 95
2020-03-30 08:00:00 6.5 0 Calma 3 Norte 0 -- -- 96
2020-03-30 07:00:00 5.7 2 Norte 3 Norte 0 -- -- 94
2020-03-30 06:00:00 6.2 2 Nordeste 4 Norte 0 -- -- 92
2020-03-30 05:00:00 7 4 Oeste 6 Oeste 0 -- -- 90
2020-03-30 04:00:00 7 2 Norte 5 Nordeste 0 -- -- 87
2020-03-30 03:00:00 7 4 Nordeste 5 Norte 0 -- -- 88
2020-03-30 02:00:00 8.3 4 Norte 5 Nordeste 0 -- -- 84
2020-03-30 01:00:00 9 3 Nordeste 5 Noroeste 0 -- -- 84
2020-03-30 00:00:00 10.8 0 Calma 5 Noroeste 0 -- -- 78
2020-03-29 23:00:00 11.3 2 Sudoeste 15 Noroeste 0 -- -- 78
2020-03-29 22:00:00 11.3 6 Oeste 15 Noroeste 0 -- -- 77
2020-03-29 21:00:00 12 4 Oeste 8 Sudoeste 0 -- -- 69
2020-03-29 20:00:00 13.5 3 Sudoeste 13 Sudoeste 0 -- -- 66
2020-03-29 19:00:00 14.1 9 Sudoeste 16 Sudoeste 0 -- -- 63
2020-03-29 18:00:00 14.8 8 Sudoeste 17 Sudoeste 0 -- -- 60
2020-03-29 17:00:00 14.8 6 Sudoeste 10 Sudoeste 0 -- -- 59
2020-03-29 16:00:00 13.7 5 Sudoeste 15 Sudoeste 0 -- -- 63
2020-03-29 15:00:00 14.1 2 Sudoeste 8 Oeste 0 -- -- 59
2020-03-29 14:00:00 13.9 3 Sudoeste 11 Sudoeste 0 -- -- 63
2020-03-29 13:00:00 14.8 8 Sur 13 Sur 0 -- -- 59
2020-03-29 12:00:00 12.4 5 Norte 18 Norte 0 -- -- 72
2020-03-29 11:00:00 10.9 12 Nordeste 17 Nordeste 0 -- -- 76
2020-03-29 10:00:00 9.9 9 Nordeste 18 Norte 0 -- -- 79
2020-03-29 09:00:00 6.8 8 Nordeste 13 Nordeste 0 -- -- 90
2020-03-29 08:00:00 5.8 0 Calma 4 Norte 0 -- -- 89
2020-03-29 07:00:00 5.8 2 Nordeste 5 Norte 0 -- -- 90
2020-03-29 06:00:00 6.2 4 Nordeste 6 Nordeste 0 -- -- 86
2020-03-29 05:00:00 8 4 Norte 8 Norte 0 -- -- 78
2020-03-29 03:00:00 8 5 Noroeste 10 Noroeste 0 -- -- 76
2020-03-29 01:00:00 8.8 4 Noroeste 10 Noroeste 0 -- -- 73
2020-03-29 00:00:00 9.1 4 Oeste 7 Oeste 0 -- -- 73
2020-03-28 23:00:00 8.4 4 Oeste 6 Oeste 0 -- -- 75
2020-03-28 22:00:00 8.5 4 Oeste 6 Oeste 0 -- -- 74
2020-03-28 21:00:00 9.1 3 Oeste 6 Oeste 0 -- -- 74
2020-03-28 20:00:00 9.4 0 Calma 4 Nordeste 0 -- -- 76
2020-03-28 19:00:00 11.7 3 Este 7 Este 0 -- -- 70
2020-03-28 18:00:00 13.1 3 Nordeste 8 Nordeste 0 -- -- 62
2020-03-28 17:00:00 13.1 3 Este 10 Este 0 -- -- 61
2020-03-28 16:00:00 14.1 5 Sudeste 14 Sur 0 -- -- 61
2020-03-28 15:00:00 13.4 5 Sudoeste 14 Sudoeste 0 -- -- 61
2020-03-28 14:00:00 13.4 6 Sudeste 16 Sudeste 0 -- -- 65
2020-03-28 13:00:00 12.8 9 Sudeste 18 Sudeste 0 -- -- 67
2020-03-28 12:00:00 10.8 9 Nordeste 15 Sudeste 0 -- -- 73
2020-03-28 11:00:00 10.3 7 Este 18 Nordeste 0 -- -- 78
2020-03-28 10:00:00 7 12 Nordeste 16 Nordeste 0 -- -- 84
2020-03-28 09:00:00 5.7 10 Nordeste 18 Nordeste 0 -- -- 86
2020-03-28 08:00:00 4.6 8 Nordeste 14 Nordeste 0 -- -- 87
2020-03-28 07:00:00 3.3 9 Nordeste 15 Nordeste 0 -- -- 88
2020-03-28 06:00:00 3 8 Nordeste 15 Nordeste 0 -- -- 90
2020-03-28 05:00:00 2.8 9 Nordeste 18 Nordeste 0 -- -- 92
2020-03-28 04:00:00 3.2 14 Nordeste 19 Nordeste 0 -- -- 90
2020-03-28 03:00:00 3.1 11 Nordeste 22 Nordeste 0 -- -- 90
2020-03-28 02:00:00 3.5 17 Nordeste 23 Nordeste 0 -- -- 88
2020-03-28 01:00:00 4.3 17 Nordeste 23 Norte 0 -- -- 85
2020-03-28 00:00:00 4.7 15 Nordeste 25 Nordeste 0 -- -- 83
2020-03-27 23:00:00 6.2 17 Nordeste 26 Nordeste 0 -- -- 82
2020-03-27 22:00:00 6.9 14 Nordeste 24 Nordeste 0 -- -- 81
2020-03-27 21:00:00 7.6 15 Nordeste 25 Nordeste 0 -- -- 80
2020-03-27 20:00:00 8.5 13 Nordeste 23 Nordeste 0 -- -- 79
2020-03-27 19:00:00 9.2 13 Nordeste 24 Nordeste 0 -- -- 80
2020-03-27 18:00:00 11 13 Norte 28 Nordeste 0 -- -- 76
2020-03-27 17:00:00 11.5 14 Nordeste 24 Nordeste 0 -- -- 75
2020-03-27 16:00:00 11.8 8 Norte 23 Norte 0 -- -- 75
2020-03-27 15:00:00 11.5 10 Nordeste 17 Nordeste 0 -- -- 76
2020-03-27 14:00:00 13 6 Sudoeste 17 Sur 0 -- -- 63
2020-03-27 13:00:00 10.6 5 Sudoeste 12 Sur 0 -- -- 74
2020-03-27 12:00:00 7.3 4 Oeste 19 Sudoeste 0 -- -- 97
2020-03-27 11:00:00 5.2 11 Sudoeste 15 Sudoeste 0 -- -- 100
2020-03-27 10:00:00 4.3 9 Nordeste 21 Nordeste 0 -- -- 100
2020-03-27 09:00:00 3.4 13 Nordeste 20 Norte 0 -- -- 99
2020-03-27 08:00:00 2.9 12 Norte 19 Nordeste 0 -- -- 98
2020-03-27 07:00:00 3.2 10 Nordeste 14 Nordeste 0 -- -- 95
2020-03-27 06:00:00 2.9 3 Nordeste 5 Nordeste 0 -- -- 95
2020-03-27 05:00:00 3.6 0 Calma 6 Sudoeste 0 -- -- 93
2020-03-27 04:00:00 5 3 Sudoeste 10 Oeste 0 -- -- 95
2020-03-27 03:00:00 4.8 2 Nordeste 5 Nordeste 0 -- -- 93
2020-03-27 02:00:00 5.6 0 Calma 5 Sudeste 0 -- -- 90
2020-03-27 01:00:00 7.6 4 Noroeste 18 Oeste 0 -- -- 86
2020-03-27 00:00:00 8.6 4 Sudoeste 19 Noroeste 0 -- -- 83
2020-03-26 23:00:00 9.6 10 Oeste 23 Oeste 0 -- -- 79
2020-03-26 22:00:00 10.8 5 Noroeste 20 Noroeste 0 -- -- 74
2020-03-26 21:00:00 11.8 10 Noroeste 20 Noroeste 0 -- -- 69
2020-03-26 20:00:00 12.6 6 Noroeste 25 Oeste 0 -- -- 63
2020-03-26 19:00:00 15.3 10 Noroeste 35 Sudoeste 0 -- -- 57
2020-03-26 18:00:00 16.2 14 Oeste 29 Sudoeste 0 -- -- 55
2020-03-26 17:00:00 16.8 14 Noroeste 30 Noroeste 0 -- -- 56
2020-03-26 16:00:00 16.8 19 Oeste 31 Oeste 0 -- -- 49
2020-03-26 15:00:00 16.6 11 Noroeste 28 Oeste 0 -- -- 54
2020-03-26 14:00:00 15.9 11 Noroeste 30 Oeste 0 -- -- 51
2020-03-26 13:00:00 15.6 16 Oeste 28 Oeste 0 -- -- 58
2020-03-26 12:00:00 14.9 8 Sudoeste 24 Noroeste 0 -- -- 73
2020-03-26 11:00:00 12.5 6 Oeste 12 Sudoeste 0 -- -- 83
2020-03-26 10:00:00 10 4 Sudoeste 10 Oeste 0 -- -- 94
2020-03-26 09:00:00 7.8 2 Sudoeste 10 Oeste 0 -- -- 98
2020-03-26 08:00:00 7.6 4 Oeste 11 Oeste 0 -- -- 97
2020-03-26 07:00:00 7.9 5 Oeste 10 Oeste 0 -- -- 97
2020-03-26 06:00:00 8.4 3 Sudoeste 9 Oeste 0 -- -- 96
2020-03-26 05:00:00 8.7 5 Oeste 14 Noroeste 0 -- -- 95
2020-03-26 04:00:00 8.8 3 Este 20 Oeste 0 -- -- 94
2020-03-26 03:00:00 9.8 6 Oeste 18 Noroeste 0 -- -- 95
2020-03-26 02:00:00 9.9 8 Oeste 27 Oeste 0 -- -- 96
2020-03-26 01:00:00 10.1 14 Oeste 26 Oeste 0 -- -- 94
2020-03-26 00:00:00 10.6 10 Oeste 28 Oeste 0 -- -- 90
2020-03-25 23:00:00 10.1 3 Sudoeste 8 Sudoeste 0 -- -- 83
2020-03-25 22:00:00 10.8 5 Noroeste 12 Oeste 0 -- -- 82
2020-03-25 21:00:00 11.8 6 Noroeste 12 Noroeste 0 -- -- 67
2020-03-25 20:00:00 12.7 5 Norte 14 Norte 0 -- -- 65
2020-03-25 19:00:00 15 6 Norte 21 Norte 0 -- -- 56
2020-03-25 18:00:00 16.8 9 Noroeste 22 Noroeste 0 -- -- 54
2020-03-25 17:00:00 15.8 5 Nordeste 19 Nordeste 0 -- -- 56
2020-03-25 16:00:00 16.1 8 Norte 17 Norte 0 -- -- 57
2020-03-25 15:00:00 15.8 8 Nordeste 21 Nordeste 0 -- -- 56
2020-03-25 14:00:00 15.4 8 Nordeste 17 Nordeste 0 -- -- 58
2020-03-25 13:00:00 14 7 Norte 17 Norte 0 -- -- 67
2020-03-25 12:00:00 13.3 8 Norte 14 Noroeste 0 -- -- 69
2020-03-25 11:00:00 12.6 6 Oeste 13 Oeste 0 -- -- 75
2020-03-25 10:00:00 11 7 Oeste 12 Sudoeste 0 -- -- 77
2020-03-25 09:00:00 8.8 0 Calma 9 Norte 0 -- -- 88
2020-03-25 08:00:00 7.5 9 Nordeste 17 Norte 0 -- -- 89
2020-03-25 07:00:00 7.5 11 Nordeste 14 Nordeste 0 -- -- 89
2020-03-25 06:00:00 7.3 2 Sudeste 20 Nordeste 0 -- -- 89
2020-03-25 05:00:00 6.7 16 Nordeste 24 Norte 0 -- -- 92
2020-03-25 04:00:00 7.8 16 Nordeste 21 Nordeste 0 -- -- 89
2020-03-25 03:00:00 8.1 11 Nordeste 20 Norte 0 -- -- 89
2020-03-25 02:00:00 8.1 14 Nordeste 20 Norte 0 -- -- 88
2020-03-25 01:00:00 8.4 13 Nordeste 19 Nordeste 0 -- -- 88
2020-03-25 00:00:00 8.4 14 Nordeste 23 Nordeste 0 -- -- 89
2020-03-24 23:00:00 8.6 18 Nordeste 24 Nordeste 0 -- -- 88
2020-03-24 22:00:00 9.5 15 Nordeste 27 Nordeste 0 -- -- 85
2020-03-24 21:00:00 11 14 Nordeste 26 Nordeste 0 -- -- 81
2020-03-24 20:00:00 12.2 10 Nordeste 26 Nordeste 0 -- -- 77
2020-03-24 19:00:00 13.9 10 Nordeste 26 Este 0 -- -- 69
2020-03-24 18:00:00 14.6 9 Nordeste 23 Nordeste 0 -- -- 69
2020-03-24 17:00:00 15.2 13 Nordeste 24 Este 0 -- -- 64
2020-03-24 16:00:00 15.4 12 Este 25 Este 0 -- -- 64
2020-03-24 15:00:00 15.3 11 Este 28 Este 0 -- -- 65
2020-03-24 14:00:00 14.1 11 Este 30 Este 0 -- -- 68
2020-03-24 13:00:00 12.9 12 Nordeste 32 Nordeste 0 -- -- 72
2020-03-24 12:00:00 11.9 13 Nordeste 30 Nordeste 0 -- -- 77
2020-03-24 11:00:00 10.5 10 Nordeste 30 Nordeste 0 -- -- 88
2020-03-24 10:00:00 8.4 15 Nordeste 36 Este 0 -- -- 97
2020-03-24 09:00:00 7.1 12 Nordeste 29 Nordeste 0 -- -- 100
2020-03-24 08:00:00 6.1 14 Nordeste 29 Nordeste 0 -- -- 100
2020-03-24 07:00:00 6.5 16 Nordeste 26 Nordeste 0 -- -- 99
2020-03-24 06:00:00 6.7 14 Nordeste 24 Nordeste 0 -- -- 99
2020-03-24 05:00:00 6.7 13 Nordeste 24 Nordeste 0 -- -- 99
2020-03-24 04:00:00 6.6 17 Nordeste 23 Nordeste 0 -- -- 99
2020-03-24 03:00:00 6.6 16 Nordeste 23 Nordeste 0 -- -- 98
2020-03-24 02:00:00 6.5 12 Nordeste 17 Nordeste 0 -- -- 97
2020-03-24 01:00:00 6.5 10 Nordeste 17 Nordeste 0 -- -- 97
2020-03-24 00:00:00 6.8 8 Nordeste 17 Nordeste 0.2 -- -- 95
2020-03-23 23:00:00 7.5 5 Nordeste 17 Sudeste 0.6 -- -- 92
2020-03-23 22:00:00 7.5 9 Sudeste 28 Sudeste 2.4 -- -- 91
2020-03-23 21:00:00 8.8 14 Sudeste 26 Sudeste 0.6 -- -- 88
2020-03-23 20:00:00 9.7 3 Nordeste 16 Nordeste 0 -- -- 78
2020-03-23 19:00:00 10.6 6 Nordeste 33 Norte 0 -- -- 73
2020-03-23 18:00:00 12.5 6 Nordeste 17 Nordeste 0 -- -- 69
2020-03-23 17:00:00 11.1 7 Nordeste 15 Nordeste 0.6 -- -- 77
2020-03-23 16:00:00 7.7 4 Nordeste 30 Nordeste 6.4 -- -- 85
2020-03-23 15:00:00 12.9 6 Este 21 Este 0 -- -- 66
2020-03-23 14:00:00 11.1 8 Este 30 Este 0 -- -- 76
2020-03-23 13:00:00 11.4 9 Este 20 Este 0 -- -- 76
2020-03-23 12:00:00 11.1 8 Este 21 Este 0 -- -- 74
2020-03-23 11:00:00 8.9 7 Nordeste 19 Nordeste 0 -- -- 89
2020-03-23 10:00:00 7.3 10 Nordeste 18 Nordeste 0 -- -- 97
2020-03-23 09:00:00 6.5 9 Nordeste 15 Nordeste 0 -- -- 98
2020-03-23 08:00:00 6.2 7 Nordeste 12 Norte 0 -- -- 98
2020-03-23 07:00:00 5.9 7 Nordeste 8 Nordeste 0 -- -- 96
2020-03-23 06:00:00 6.1 5 Nordeste 8 Nordeste 0 -- -- 98
2020-03-23 05:00:00 6.4 5 Nordeste 13 Nordeste 0.6 -- -- 96
2020-03-23 04:00:00 7 5 Nordeste 9 Nordeste 0 -- -- 93
2020-03-23 03:00:00 7 4 Nordeste 7 Nordeste 0 -- -- 91
2020-03-23 02:00:00 7 4 Nordeste 11 Norte 0 -- -- 91
2020-03-23 01:00:00 7.2 6 Norte 13 Norte 0 -- -- 91
2020-03-23 00:00:00 7.6 4 Norte 10 Norte 0 -- -- 88
2020-03-22 23:00:00 7.1 3 Nordeste 6 Norte 0 -- -- 88
2020-03-22 22:00:00 7 3 Norte 6 Nordeste 0 -- -- 93
2020-03-22 21:00:00 7.5 3 Nordeste 4 Nordeste 0 -- -- 91
2020-03-22 20:00:00 8.3 2 Sudoeste 11 Oeste 0 -- -- 87
2020-03-22 19:00:00 9.4 7 Oeste 15 Oeste 0 -- -- 84
2020-03-22 18:00:00 10.1 3 Nordeste 6 Nordeste 0 -- -- 78
2020-03-22 17:00:00 9 2 Nordeste 13 Norte 0 -- -- 83
2020-03-22 16:00:00 7.9 9 Norte 37 Nordeste 0.6 -- -- 87
2020-03-22 15:00:00 11 3 Sudeste 15 Sudeste 0.2 -- -- 74
2020-03-22 14:00:00 10 10 Este 22 Este 0.2 -- -- 78
2020-03-22 13:00:00 10.1 9 Este 21 Sudeste 0 -- -- 77
2020-03-22 12:00:00 8.8 6 Este 14 Sudeste 0 -- -- 85
2020-03-22 11:00:00 7.2 9 Este 19 Este 0 -- -- 95
2020-03-22 10:00:00 5.8 8 Nordeste 15 Nordeste 0 -- -- 98
2020-03-22 09:00:00 5.3 8 Nordeste 15 Nordeste 0 -- -- 99
2020-03-22 08:00:00 4.6 9 Nordeste 13 Norte 0 -- -- 98
2020-03-22 07:00:00 4.6 5 Nordeste 14 Nordeste 0 -- -- 98
2020-03-22 06:00:00 4.8 8 Nordeste 13 Nordeste 0 -- -- 98
2020-03-22 05:00:00 4.9 3 Nordeste 9 Sudeste 0 -- -- 98
2020-03-22 04:00:00 4.3 4 Nordeste 8 Este 0 -- -- 96
2020-03-22 03:00:00 4.3 3 Sur 10 Sudeste 0 -- -- 95
2020-03-22 02:00:00 5.1 4 Sur 15 Sudoeste 0 -- -- 96
2020-03-22 01:00:00 4.8 3 Oeste 6 Oeste 0 -- -- 98
2020-03-22 00:00:00 4.5 0 Calma 10 Sur 0 -- -- 98
2020-03-21 23:00:00 5.2 7 Sudoeste 10 Sudoeste 0.2 -- -- 99
2020-03-21 22:00:00 5.4 6 Sudoeste 13 Sudoeste 0 -- -- 99
2020-03-21 21:00:00 5.6 6 Sudoeste 15 Sudoeste 0 -- -- 98
2020-03-21 20:00:00 6 8 Sudoeste 15 Oeste 0.2 -- -- 97
2020-03-21 19:00:00 6.8 7 Sur 18 Nordeste 1 -- -- 97
2020-03-21 18:00:00 6.6 6 Este 21 Sur 6.4 -- -- 95
2020-03-21 17:00:00 6.6 3 Sur 17 Sur 2.2 -- -- 96
2020-03-21 16:00:00 6.6 11 Sudoeste 27 Sur 1.6 -- -- 94
2020-03-21 15:00:00 6.9 16 Sur 27 Sur 1.8 -- -- 92
2020-03-21 14:00:00 8.5 13 Sudoeste 31 Sur 0.2 -- -- 87
2020-03-21 13:00:00 9.3 15 Sur 28 Sur 0 -- -- 77
2020-03-21 12:00:00 9.3 17 Sudoeste 30 Sudoeste 0 -- -- 79
2020-03-21 11:00:00 8.5 19 Sudoeste 29 Sudoeste 0 -- -- 83
2020-03-21 10:00:00 7.1 13 Sudoeste 25 Sur 0 -- -- 97
2020-03-21 09:00:00 5.9 8 Sudoeste 14 Sudoeste 0 -- -- 98
2020-03-21 08:00:00 5.2 8 Sudoeste 19 Oeste 0 -- -- 98
2020-03-21 07:00:00 6 10 Sudoeste 17 Sudoeste 0 -- -- 98
2020-03-21 06:00:00 6.5 9 Sudoeste 22 Oeste 0 -- -- 98
2020-03-21 05:00:00 7.3 10 Sudoeste 22 Sudoeste 0 -- -- 97
2020-03-21 04:00:00 7 6 Sudoeste 35 Sudoeste 2.4 -- -- 95
2020-03-21 03:00:00 8.6 19 Sudoeste 32 Sudoeste 10.8 -- -- 96
2020-03-21 02:00:00 9.7 12 Sur 25 Sudoeste 4.4 -- -- 97
2020-03-21 01:00:00 9.7 15 Sur 34 Sur 1.2 -- -- 96
2020-03-21 00:00:00 10 18 Sudoeste 36 Sudeste 1.8 -- -- 96
2020-03-20 23:00:00 10.4 18 Sudoeste 36 Sudoeste 0.2 -- -- 93
2020-03-20 22:00:00 12 17 Sur 27 Sur 0 -- -- 78
2020-03-20 21:00:00 12.3 6 Sur 24 Sur 0 -- -- 81
2020-03-20 20:00:00 13.1 12 Sur 26 Sur 0 -- -- 76
2020-03-20 19:00:00 13.9 10 Sur 23 Sur 0 -- -- 71
2020-03-20 18:00:00 14.7 11 Sur 24 Sur 0 -- -- 69
2020-03-20 17:00:00 16.1 14 Sur 24 Sur 0 -- -- 63
2020-03-20 16:00:00 14.6 12 Sur 22 Sur 0 -- -- 72
2020-03-20 15:00:00 13.8 11 Sudoeste 22 Sur 0 -- -- 79
2020-03-20 14:00:00 15.5 10 Sur 24 Sur 0 -- -- 64
2020-03-20 13:00:00 14.7 10 Sur 24 Sudoeste 0 -- -- 69
2020-03-20 12:00:00 13.8 12 Sur 28 Sudeste 0 -- -- 73
2020-03-20 11:00:00 12.5 15 Sudeste 26 Sudeste 0 -- -- 79
2020-03-20 10:00:00 11 10 Sur 24 Sur 0 -- -- 83
2020-03-20 09:00:00 10.5 10 Sur 17 Sur 0 -- -- 92
2020-03-20 08:00:00 9.8 5 Sur 9 Sur 0 -- -- 93
2020-03-20 07:00:00 9.4 3 Sudoeste 5 Sur 0 -- -- 92
2020-03-20 06:00:00 9.7 2 Sur 13 Sur 0 -- -- 90
2020-03-20 05:00:00 9.9 4 Sudoeste 6 Sudoeste 0 -- -- 88
2020-03-20 04:00:00 10.5 5 Sudeste 12 Sudoeste 0 -- -- 84
2020-03-20 03:00:00 11.3 4 Sur 15 Sur 0 -- -- 80
2020-03-20 02:00:00 12.3 8 Sur 20 Sur 0 -- -- 77
2020-03-20 01:00:00 12.2 7 Sur 15 Sur 0 -- -- 79
2020-03-20 00:00:00 12.2 8 Sudoeste 17 Sur 0 -- -- 79
2020-03-19 23:00:00 12.7 3 Sur 8 Este 0 -- -- 72
2020-03-19 22:00:00 13.1 5 Este 8 Este 0 -- -- 69
2020-03-19 21:00:00 13.4 5 Este 9 Sudeste 0 -- -- 72
2020-03-19 20:00:00 13.9 4 Sudeste 8 Este 0 -- -- 70
2020-03-19 19:00:00 15.5 3 Este 7 Sudeste 0 -- -- 66
2020-03-19 18:00:00 16.3 4 Sudeste 13 Nordeste 0 -- -- 62
2020-03-19 17:00:00 16.3 6 Este 12 Este 0 -- -- 62
2020-03-19 16:00:00 16.6 6 Sudeste 15 Nordeste 0 -- -- 62
2020-03-19 15:00:00 16.5 8 Nordeste 16 Nordeste 0 -- -- 58
2020-03-19 14:00:00 15.4 6 Nordeste 21 Nordeste 0 -- -- 64
2020-03-19 13:00:00 14.5 8 Nordeste 22 Nordeste 0 -- -- 70
2020-03-19 12:00:00 13.1 15 Nordeste 23 Este 0 -- -- 73
2020-03-19 11:00:00 11.6 17 Nordeste 24 Nordeste 0 -- -- 79
2020-03-19 10:00:00 9.7 14 Nordeste 22 Nordeste 0 -- -- 85
2020-03-19 09:00:00 8.6 14 Nordeste 23 Nordeste 0 -- -- 92
2020-03-19 08:00:00 8.2 12 Nordeste 20 Nordeste 0 -- -- 93
2020-03-19 07:00:00 8.6 13 Nordeste 19 Nordeste 0 -- -- 92
2020-03-19 06:00:00 8.8 9 Nordeste 17 Nordeste 0 -- -- 91
2020-03-19 05:00:00 10 8 Nordeste 14 Este 0 -- -- 85
2020-03-19 04:00:00 9.9 3 Sur 13 Sur 0 -- -- 86
2020-03-19 03:00:00 9.7 4 Sudeste 9 Sur 0 -- -- 85
2020-03-19 02:00:00 10 2 Sudeste 18 Nordeste 0 -- -- 81
2020-03-19 01:00:00 10.6 14 Nordeste 20 Nordeste 0 -- -- 79
2020-03-19 00:00:00 11 15 Nordeste 22 Nordeste 0 -- -- 78
2020-03-18 23:00:00 11.5 15 Nordeste 19 Norte 0 -- -- 78
2020-03-18 22:00:00 12.2 13 Nordeste 21 Este 0 -- -- 77
2020-03-18 21:00:00 13.3 11 Nordeste 19 Nordeste 0 -- -- 74
2020-03-18 20:00:00 15.7 7 Nordeste 14 Nordeste 0 -- -- 60
2020-03-18 19:00:00 17.6 6 Este 21 Este 0 -- -- 51
2020-03-18 18:00:00 19.2 9 Este 25 Este 0 -- -- 48
2020-03-18 17:00:00 20 11 Este 24 Sudeste 0 -- -- 48
2020-03-18 16:00:00 19.7 11 Este 23 Nordeste 0 -- -- 52
2020-03-18 15:00:00 18.6 12 Nordeste 24 Norte 0 -- -- 57
2020-03-18 14:00:00 17.3 13 Nordeste 26 Nordeste 0 -- -- 59
2020-03-18 13:00:00 15.6 15 Nordeste 32 Este 0 -- -- 66
2020-03-18 12:00:00 14 18 Nordeste 32 Nordeste 0 -- -- 73
2020-03-18 11:00:00 11.8 21 Nordeste 30 Nordeste 0 -- -- 80
2020-03-18 10:00:00 9.9 19 Nordeste 31 Nordeste 0 -- -- 88
2020-03-18 09:00:00 8.8 19 Nordeste 31 Nordeste 0 -- -- 89
2020-03-18 08:00:00 8.6 21 Norte 32 Norte 0 -- -- 90
2020-03-18 07:00:00 8.7 21 Norte 32 Norte 0 -- -- 91
2020-03-18 06:00:00 8.7 19 Nordeste 35 Nordeste 0 -- -- 95
2020-03-18 05:00:00 8.5 19 Nordeste 28 Norte 0 -- -- 96
2020-03-18 04:00:00 8.8 14 Nordeste 24 Norte 0 -- -- 95
2020-03-18 03:00:00 9 14 Nordeste 26 Nordeste 0 -- -- 93
2020-03-18 02:00:00 9.1 17 Nordeste 26 Norte 0 -- -- 88
2020-03-18 01:00:00 9.1 14 Nordeste 23 Nordeste 0 -- -- 84
2020-03-18 00:00:00 9 13 Nordeste 26 Norte 0 -- -- 81
2020-03-17 23:00:00 9.5 13 Nordeste 26 Norte 0 -- -- 76
2020-03-17 22:00:00 9.8 16 Nordeste 26 Nordeste 0 -- -- 72
2020-03-17 21:00:00 10.1 13 Nordeste 22 Nordeste 0 -- -- 69
2020-03-17 20:00:00 11.6 8 Nordeste 17 Este 0 -- -- 61
2020-03-17 19:00:00 12.1 4 Nordeste 17 Este 0 -- -- 52
2020-03-17 18:00:00 13.3 8 Este 26 Este 0 -- -- 46
2020-03-17 17:00:00 14.3 12 Este 26 Este 0 -- -- 45
2020-03-17 16:00:00 15.2 15 Este 31 Sur 0 -- -- 45
2020-03-17 15:00:00 14.6 15 Sudeste 31 Sudeste 0 -- -- 52
2020-03-17 14:00:00 13.3 18 Sudeste 35 Sudeste 0 -- -- 58
2020-03-17 13:00:00 11.4 13 Este 35 Sudeste 0 -- -- 66
2020-03-17 12:00:00 9.9 14 Este 33 Sudeste 0 -- -- 77
2020-03-17 11:00:00 7.5 14 Este 26 Este 0 -- -- 88
2020-03-17 10:00:00 5.5 10 Este 26 Este 0 -- -- 97
2020-03-17 09:00:00 4.1 12 Este 28 Este 0 -- -- 99
2020-03-17 08:00:00 3.8 7 Este 23 Sudeste 0.2 -- -- 99
2020-03-17 07:00:00 3.5 6 Este 17 Este 0.6 -- -- 99
2020-03-17 06:00:00 3.1 8 Nordeste 17 Este 0 -- -- 98
2020-03-17 05:00:00 2.9 5 Nordeste 16 Nordeste 0 -- -- 98
2020-03-17 04:00:00 2.8 9 Nordeste 14 Nordeste 0.2 -- -- 98
2020-03-17 03:00:00 2.7 5 Nordeste 12 Este 0 -- -- 97
2020-03-17 02:00:00 2.7 6 Nordeste 15 Nordeste 0.2 -- -- 97
2020-03-17 01:00:00 3.4 7 Nordeste 19 Norte 0.2 -- -- 96
2020-03-17 00:00:00 3.7 6 Norte 14 Norte 0 -- -- 95
2020-03-16 23:00:00 4 5 Norte 25 Norte 0.2 -- -- 96
2020-03-16 22:00:00 4.1 6 Norte 21 Nordeste 0 -- -- 96
2020-03-16 21:00:00 4.1 10 Norte 25 Norte 0.6 -- -- 95
2020-03-16 20:00:00 4.1 10 Norte 34 Norte 0.6 -- -- 94
2020-03-16 19:00:00 4.5 14 Norte 34 Noroeste 0.2 -- -- 89
2020-03-16 18:00:00 6 14 Noroeste 42 Norte 0 -- -- 79
2020-03-16 17:00:00 6.5 14 Noroeste 39 Noroeste 0 -- -- 82
2020-03-16 16:00:00 7.2 14 Norte 42 Noroeste 0 -- -- 69
2020-03-16 15:00:00 7.9 15 Noroeste 41 Noroeste 0 -- -- 65
2020-03-16 14:00:00 8.2 15 Noroeste 32 Noroeste 0 -- -- 58
2020-03-16 13:00:00 8.1 15 Noroeste 36 Noroeste 0 -- -- 60
2020-03-16 12:00:00 7.9 17 Noroeste 33 Norte 0 -- -- 64
2020-03-16 11:00:00 6.5 16 Noroeste 38 Oeste 0 -- -- 66
2020-03-16 10:00:00 4.9 17 Noroeste 32 Norte 0 -- -- 71
2020-03-16 09:00:00 3.9 10 Noroeste 33 Noroeste 0 -- -- 73
2020-03-16 08:00:00 2.7 9 Noroeste 30 Noroeste 0 -- -- 79
2020-03-16 07:00:00 2.7 10 Noroeste 28 Norte 0 -- -- 78
2020-03-16 06:00:00 3.3 19 Norte 38 Noroeste 0 -- -- 73
2020-03-16 05:00:00 3.3 16 Norte 42 Noroeste 0 -- -- 72
2020-03-16 04:00:00 3.6 21 Noroeste 46 Noroeste 0 -- -- 74
2020-03-16 03:00:00 4.6 16 Norte 36 Noroeste 0 -- -- 71
2020-03-16 02:00:00 5.7 11 Norte 30 Norte 0 -- -- 75
2020-03-16 01:00:00 7.3 11 Noroeste 36 Norte 0 -- -- 69
2020-03-16 00:00:00 8.9 10 Noroeste 27 Norte 0.2 -- -- 82
2020-03-15 23:00:00 10.2 14 Norte 29 Noroeste 0 -- -- 75
2020-03-15 22:00:00 13.1 10 Oeste 31 Noroeste 0 -- -- 80
2020-03-15 21:00:00 14.4 10 Oeste 24 Sudoeste 0 -- -- 77
2020-03-15 20:00:00 15.1 12 Sudoeste 27 Sudoeste 0 -- -- 68
2020-03-15 19:00:00 17.4 17 Sudoeste 36 Sudoeste 0 -- -- 61
2020-03-15 18:00:00 18.4 20 Sudoeste 36 Sur 0 -- -- 61
2020-03-15 17:00:00 19.1 20 Sudoeste 34 Sudoeste 0 -- -- 61
2020-03-15 16:00:00 19.8 17 Sudoeste 28 Sudoeste 0 -- -- 57
2020-03-15 15:00:00 19.5 17 Sudoeste 28 Sudoeste 0 -- -- 55
2020-03-15 14:00:00 18.8 12 Sudoeste 22 Sudoeste 0 -- -- 62
2020-03-15 13:00:00 18.4 10 Sudoeste 21 Sudoeste 0 -- -- 66
2020-03-15 12:00:00 17 8 Sudoeste 16 Oeste 0 -- -- 73
2020-03-15 11:00:00 16 9 Sudoeste 15 Sur 0 -- -- 79
2020-03-15 10:00:00 14.3 7 Sudoeste 12 Sudoeste 0 -- -- 87
2020-03-15 09:00:00 12.4 4 Sudoeste 6 Sudoeste 0 -- -- 95
2020-03-15 08:00:00 11.3 4 Oeste 8 Oeste 0 -- -- 95
2020-03-15 07:00:00 11.1 6 Sudoeste 11 Sudoeste 0 -- -- 93
2020-03-15 06:00:00 10.8 5 Sudoeste 7 Sudoeste 0 -- -- 91
2020-03-15 05:00:00 10.4 0 Calma 3 Norte 0 -- -- 91
2020-03-15 04:00:00 11.2 3 Norte 5 Norte 0 -- -- 87
2020-03-15 03:00:00 11 0 Calma 5 Norte 0 -- -- 81
2020-03-15 02:00:00 11.5 3 Nordeste 5 Nordeste 0 -- -- 82
2020-03-15 01:00:00 12.1 5 Norte 8 Norte 0 -- -- 79
2020-03-15 00:00:00 13.6 0 Calma 13 Noroeste 0 -- -- 73
2020-03-14 23:00:00 13.4 3 Noroeste 5 Norte 0 -- -- 79
2020-03-14 22:00:00 14.3 4 Noroeste 8 Noroeste 0 -- -- 80
2020-03-14 21:00:00 14.9 4 Noroeste 10 Oeste 0 -- -- 76
2020-03-14 20:00:00 16 5 Oeste 14 Oeste 0 -- -- 71
2020-03-14 19:00:00 17.9 8 Sudoeste 17 Sudoeste 0 -- -- 69
2020-03-14 18:00:00 19.8 12 Sudoeste 21 Sur 0 -- -- 61
2020-03-14 17:00:00 21.4 11 Sudoeste 20 Sur 0 -- -- 57
2020-03-14 16:00:00 21.8 7 Sudoeste 16 Sur 0 -- -- 55
2020-03-14 15:00:00 21.5 11 Sudoeste 19 Sudoeste 0 -- -- 57
2020-03-14 14:00:00 20.9 9 Sudoeste 15 Sudoeste 0 -- -- 56
2020-03-14 13:00:00 19.4 8 Sudoeste 15 Sudoeste 0 -- -- 61
2020-03-14 12:00:00 17.8 6 Sudoeste 15 Sudoeste 0 -- -- 70
2020-03-14 11:00:00 16.3 5 Sudoeste 13 Norte 0 -- -- 76
2020-03-14 10:00:00 14.2 6 Norte 13 Norte 0 -- -- 85
2020-03-14 09:00:00 11.4 3 Sudoeste 5 Oeste 0 -- -- 96
2020-03-14 08:00:00 9.4 0 Calma 3 Noroeste 0 -- -- 95
2020-03-14 07:00:00 9.6 0 Calma 8 Norte 0 -- -- 92
2020-03-14 06:00:00 10.1 4 Norte 6 Nordeste 0 -- -- 94
2020-03-14 05:00:00 11.2 2 Nordeste 12 Nordeste 0 -- -- 91
2020-03-14 04:00:00 11.8 8 Norte 24 Nordeste 0 -- -- 92
2020-03-14 03:00:00 12.7 6 Norte 15 Norte 0 -- -- 79
2020-03-14 02:00:00 12.2 11 Norte 17 Norte 0 -- -- 81
2020-03-14 01:00:00 12.3 0 Calma 9 Noroeste 0 -- -- 84
2020-03-14 00:00:00 13.3 3 Noroeste 19 Norte 0 -- -- 84
2020-03-13 23:00:00 12.9 7 Norte 14 Norte 0 -- -- 84
2020-03-13 22:00:00 13.5 4 Norte 17 Norte 0 -- -- 80
2020-03-13 21:00:00 14.6 9 Norte 13 Norte 0 -- -- 76
2020-03-13 20:00:00 15.7 3 Noroeste 9 Oeste 0 -- -- 73
2020-03-13 19:00:00 18.3 5 Oeste 17 Sudoeste 0 -- -- 69
2020-03-13 18:00:00 20.7 9 Sudoeste 19 Sudoeste 0 -- -- 61
2020-03-13 17:00:00 21.1 10 Sudoeste 17 Sudoeste 0 -- -- 59
2020-03-13 16:00:00 21.5 12 Oeste 24 Oeste 0 -- -- 51
2020-03-13 15:00:00 20.9 9 Sudoeste 18 Sudoeste 0 -- -- 54
2020-03-13 14:00:00 20.6 6 Sudoeste 24 Sudoeste 0 -- -- 59
2020-03-13 13:00:00 19.4 10 Sudoeste 19 Sur 0 -- -- 59
2020-03-13 12:00:00 18 10 Sudoeste 18 Sudoeste 0 -- -- 64
2020-03-13 11:00:00 16.9 8 Sudoeste 14 Sudoeste 0 -- -- 67
2020-03-13 10:00:00 14.9 7 Sudoeste 11 Sudoeste 0 -- -- 69
2020-03-13 09:00:00 11.4 3 Sur 4 Sur 0 -- -- 90
2020-03-13 08:00:00 9.7 3 Norte 4 Norte 0 -- -- 90
2020-03-13 07:00:00 9.3 2 Norte 3 Norte 0 -- -- 90
2020-03-13 06:00:00 9.8 0 Calma 5 Norte 0 -- -- 90
2020-03-13 05:00:00 11.2 3 Norte 6 Norte 0 -- -- 86
2020-03-13 04:00:00 11.1 4 Norte 8 Norte 0 -- -- 84
2020-03-13 03:00:00 11.7 4 Norte 5 Norte 0 -- -- 82
2020-03-13 02:00:00 11.5 4 Nordeste 8 Norte 0 -- -- 83
2020-03-13 01:00:00 11.8 4 Norte 6 Noroeste 0 -- -- 82
2020-03-13 00:00:00 12.1 3 Norte 5 Norte 0 -- -- 78
2020-03-12 23:00:00 13.2 3 Oeste 5 Oeste 0 -- -- 74
2020-03-12 22:00:00 14.2 0 Calma 9 Oeste 0 -- -- 74
2020-03-12 21:00:00 14.9 3 Oeste 13 Sudoeste 0 -- -- 68
2020-03-12 20:00:00 16.5 8 Sudoeste 17 Sudoeste 0 -- -- 62
2020-03-12 19:00:00 17.7 10 Sudoeste 26 Sudoeste 0 -- -- 62
2020-03-12 18:00:00 19.8 18 Sudoeste 28 Sudoeste 0 -- -- 54
2020-03-12 17:00:00 21.6 14 Sudoeste 32 Sudoeste 0 -- -- 44
2020-03-12 16:00:00 22.5 19 Sudoeste 32 Sudoeste 0 -- -- 44
2020-03-12 15:00:00 22 23 Sudoeste 35 Sudoeste 0 -- -- 42
2020-03-12 14:00:00 21.4 23 Sudoeste 36 Sudoeste 0 -- -- 43
2020-03-12 13:00:00 19.3 19 Sudoeste 30 Sudoeste 0 -- -- 48
2020-03-12 12:00:00 19.6 17 Sudoeste 32 Sur 0 -- -- 49
2020-03-12 11:00:00 18 16 Sudoeste 28 Sudoeste 0 -- -- 50
2020-03-12 10:00:00 17.7 18 Sudoeste 27 Sudoeste 0 -- -- 49
2020-03-12 09:00:00 15.8 8 Sudoeste 12 Sudoeste 0 -- -- 51
2020-03-12 08:00:00 15.8 6 Sudoeste 12 Oeste 0 -- -- 49
2020-03-12 07:00:00 16 4 Sudoeste 16 Sudoeste 0 -- -- 48
2020-03-12 06:00:00 17.1 9 Sur 23 Sudoeste 0 -- -- 43
2020-03-12 05:00:00 18.6 14 Sur 26 Sur 0 -- -- 39
2020-03-12 04:00:00 19.1 14 Sur 26 Sur 0 -- -- 39
2020-03-12 03:00:00 17.9 11 Sur 22 Sudoeste 0 -- -- 51
2020-03-12 02:00:00 18.4 10 Sudoeste 20 Sur 0 -- -- 49
2020-03-12 01:00:00 18.3 6 Sudoeste 22 Sur 0 -- -- 42
2020-03-12 00:00:00 18.4 10 Sudeste 18 Sudeste 0 -- -- 47
2020-03-11 23:00:00 18.1 7 Sudeste 16 Sudeste 0 -- -- 47
2020-03-11 22:00:00 18.4 4 Sudeste 12 Sur 0 -- -- 46
2020-03-11 21:00:00 18.3 4 Sudeste 9 Sudeste 0 -- -- 45
2020-03-11 20:00:00 19.2 3 Sudeste 7 Sudeste 0 -- -- 42
2020-03-11 19:00:00 21.2 0 Calma 6 Sudoeste 0 -- -- 50
2020-03-11 18:00:00 24.7 3 Sudeste 11 Sudeste 0 -- -- 40
2020-03-11 17:00:00 24.8 7 Sur 20 Sur 0 -- -- 36
2020-03-11 16:00:00 25.8 13 Sur 21 Sur 0 -- -- 32
2020-03-11 15:00:00 26.1 14 Sur 25 Sur 0 -- -- 33
2020-03-11 14:00:00 26 13 Sur 24 Sudoeste 0 -- -- 33
2020-03-11 13:00:00 24.4 9 Sudoeste 19 Sudoeste 0 -- -- 39
2020-03-11 12:00:00 22.9 8 Sudoeste 21 Sur 0 -- -- 44
2020-03-11 11:00:00 22.2 10 Sur 17 Sur 0 -- -- 43
2020-03-11 10:00:00 18.9 5 Sudeste 13 Sudeste 0 -- -- 51
2020-03-11 09:00:00 16.2 4 Sudeste 11 Sudeste 0 -- -- 59
2020-03-11 08:00:00 14.3 3 Norte 11 Nordeste 0 -- -- 60
2020-03-11 07:00:00 15.1 8 Nordeste 18 Nordeste 0 -- -- 55
2020-03-11 06:00:00 15.8 14 Nordeste 20 Nordeste 0 -- -- 54
2020-03-11 05:00:00 15.6 16 Nordeste 19 Nordeste 0 -- -- 56
2020-03-11 04:00:00 15.7 13 Nordeste 15 Nordeste 0 -- -- 56
2020-03-11 03:00:00 13 8 Nordeste 10 Nordeste 0 -- -- 67
2020-03-11 02:00:00 12.9 6 Nordeste 9 Nordeste 0 -- -- 68
2020-03-11 01:00:00 14.4 7 Nordeste 9 Nordeste 0 -- -- 62
2020-03-11 00:00:00 13.7 6 Nordeste 9 Nordeste 0 -- -- 65
2020-03-10 23:00:00 15.3 6 Este 9 Este 0 -- -- 59
2020-03-10 22:00:00 15.4 5 Nordeste 8 Norte 0 -- -- 60
2020-03-10 21:00:00 15.6 4 Nordeste 7 Nordeste 0 -- -- 60
2020-03-10 20:00:00 17.4 5 Nordeste 8 Este 0 -- -- 55
2020-03-10 19:00:00 21.4 5 Nordeste 10 Nordeste 0 -- -- 46
2020-03-10 18:00:00 22.7 9 Nordeste 15 Norte 0 -- -- 42
2020-03-10 17:00:00 23.1 10 Norte 19 Nordeste 0 -- -- 42
2020-03-10 16:00:00 23 11 Nordeste 19 Nordeste 0 -- -- 40
2020-03-10 15:00:00 23.1 6 Este 15 Este 0 -- -- 40
2020-03-10 14:00:00 22.7 4 Nordeste 15 Este 0 -- -- 41
2020-03-10 13:00:00 21.3 8 Este 18 Sudeste 0 -- -- 43
2020-03-10 12:00:00 19.6 5 Este 18 Este 0 -- -- 45
2020-03-10 11:00:00 16.9 8 Nordeste 18 Nordeste 0 -- -- 48
2020-03-10 10:00:00 14.1 9 Nordeste 19 Nordeste 0 -- -- 51
2020-03-10 09:00:00 11.4 12 Nordeste 19 Nordeste 0 -- -- 58
2020-03-10 08:00:00 9.9 12 Nordeste 24 Norte 0 -- -- 61
2020-03-10 07:00:00 10.5 12 Norte 23 Norte 0 -- -- 59
2020-03-10 06:00:00 10.9 13 Norte 23 Norte 0 -- -- 58
2020-03-10 05:00:00 10.9 10 Norte 20 Norte 0 -- -- 57
2020-03-10 04:00:00 11 9 Nordeste 17 Nordeste 0 -- -- 56
2020-03-10 03:00:00 11.2 10 Nordeste 15 Norte 0 -- -- 56
2020-03-10 02:00:00 11.2 7 Nordeste 17 Norte 0 -- -- 59
2020-03-10 01:00:00 11.4 10 Norte 24 Noroeste 0 -- -- 61
2020-03-10 00:00:00 11.7 13 Norte 24 Norte 0 -- -- 56
2020-03-09 23:00:00 11.9 8 Norte 21 Norte 0 -- -- 50
2020-03-09 22:00:00 12.2 7 Norte 21 Norte 0 -- -- 49
2020-03-09 21:00:00 12.5 7 Norte 17 Nordeste 0 -- -- 50
2020-03-09 20:00:00 13.6 8 Norte 26 Norte 0 -- -- 50
2020-03-09 19:00:00 14.9 11 Norte 22 Norte 0 -- -- 48
2020-03-09 18:00:00 16.5 13 Norte 30 Norte 0 -- -- 43
2020-03-09 17:00:00 17.2 14 Norte 26 Norte 0 -- -- 39
2020-03-09 16:00:00 17.5 12 Norte 24 Norte 0 -- -- 39
2020-03-09 15:00:00 16.8 10 Norte 21 Nordeste 0 -- -- 43
2020-03-09 14:00:00 16.1 10 Norte 22 Norte 0 -- -- 47
2020-03-09 13:00:00 14.6 12 Norte 26 Norte 0 -- -- 55
2020-03-09 12:00:00 13.1 12 Norte 24 Nordeste 0 -- -- 64
2020-03-09 11:00:00 10.8 12 Nordeste 25 Norte 0 -- -- 74
2020-03-09 10:00:00 7.8 15 Norte 29 Norte 0 -- -- 95
2020-03-09 09:00:00 6.5 15 Nordeste 28 Norte 0 -- -- 96
2020-03-09 08:00:00 6.2 18 Norte 27 Norte 0 -- -- 99
2020-03-09 07:00:00 6.6 17 Norte 29 Norte 0 -- -- 99
2020-03-09 06:00:00 6.9 15 Norte 29 Norte 0 -- -- 99
2020-03-09 05:00:00 7.7 16 Norte 24 Norte 0 -- -- 98
2020-03-09 04:00:00 8.3 16 Norte 29 Norte 0 -- -- 96
2020-03-09 03:00:00 8.8 18 Norte 31 Norte 0 -- -- 94
2020-03-09 02:00:00 8.9 18 Norte 32 Norte 0 -- -- 89
2020-03-09 01:00:00 9.7 17 Norte 31 Norte 0 -- -- 77
2020-03-09 00:00:00 10 14 Norte 24 Norte 0 -- -- 72
2020-03-08 23:00:00 10.1 13 Norte 33 Norte 0 -- -- 77
2020-03-08 22:00:00 11.3 24 Norte 35 Norte 0 -- -- 65
2020-03-08 21:00:00 12.5 17 Norte 28 Norte 0 -- -- 56
2020-03-08 20:00:00 13.8 11 Nordeste 16 Norte 0 -- -- 49
2020-03-08 19:00:00 14.9 7 Norte 24 Norte 0 -- -- 42
2020-03-08 18:00:00 17.3 9 Norte 22 Norte 0 -- -- 40
2020-03-08 17:00:00 17.7 10 Norte 20 Oeste 0 -- -- 32
2020-03-08 16:00:00 19 10 Noroeste 19 Noroeste 0 -- -- 24
2020-03-08 15:00:00 19.4 9 Oeste 21 Oeste 0 -- -- 36
2020-03-08 14:00:00 18.1 8 Sudoeste 17 Sudoeste 0 -- -- 42
2020-03-08 13:00:00 16.8 5 Sur 11 Sur 0 -- -- 46
2020-03-08 12:00:00 14.9 5 Sudoeste 11 Sudoeste 0 -- -- 52
2020-03-08 11:00:00 13.3 4 Este 16 Nordeste 0 -- -- 55
2020-03-08 10:00:00 10.7 11 Nordeste 18 Nordeste 0 -- -- 60
2020-03-08 09:00:00 9.2 14 Norte 22 Norte 0 -- -- 61
2020-03-08 08:00:00 7 11 Norte 16 Norte 0 -- -- 68
2020-03-08 07:00:00 6 8 Norte 13 Norte 0 -- -- 71
2020-03-08 06:00:00 7.7 9 Nordeste 13 Norte 0 -- -- 64
2020-03-08 05:00:00 7.7 10 Nordeste 12 Norte 0 -- -- 67
2020-03-08 04:00:00 6.9 5 Nordeste 13 Nordeste 0 -- -- 69
2020-03-08 03:00:00 8 10 Nordeste 13 Nordeste 0 -- -- 64
2020-03-08 02:00:00 6 6 Nordeste 9 Nordeste 0 -- -- 71
2020-03-08 01:00:00 7.8 7 Nordeste 9 Nordeste 0 -- -- 64
2020-03-08 00:00:00 7.2 6 Nordeste 8 Nordeste 0 -- -- 65
2020-03-07 23:00:00 7.4 5 Nordeste 8 Nordeste 0 -- -- 66
2020-03-07 22:00:00 8.6 4 Nordeste 9 Norte 0 -- -- 61
2020-03-07 21:00:00 10.1 5 Nordeste 11 Norte 0 -- -- 57
2020-03-07 20:00:00 11.5 4 Norte 10 Norte 0 -- -- 54
2020-03-07 19:00:00 14.4 3 Nordeste 16 Nordeste 0 -- -- 47
2020-03-07 18:00:00 15.3 10 Nordeste 19 Norte 0 -- -- 42
2020-03-07 17:00:00 16.1 11 Nordeste 22 Nordeste 0 -- -- 41
2020-03-07 16:00:00 15.9 9 Nordeste 21 Norte 0 -- -- 43
2020-03-07 15:00:00 15.6 11 Este 21 Sudeste 0 -- -- 44
2020-03-07 14:00:00 14.4 10 Nordeste 25 Este 0 -- -- 49
2020-03-07 13:00:00 13.9 11 Nordeste 22 Nordeste 0 -- -- 46
2020-03-07 12:00:00 12 10 Nordeste 26 Este 0 -- -- 53
2020-03-07 11:00:00 8.2 8 Nordeste 21 Nordeste 0 -- -- 67
2020-03-07 10:00:00 6.5 12 Nordeste 21 Nordeste 0 -- -- 70
2020-03-07 09:00:00 4.5 10 Nordeste 22 Norte 0 -- -- 77
2020-03-07 08:00:00 3.8 11 Norte 23 Norte 0 -- -- 78
2020-03-07 07:00:00 3.8 10 Norte 18 Norte 0 -- -- 79
2020-03-07 06:00:00 4 10 Norte 23 Norte 0 -- -- 81
2020-03-07 05:00:00 4.5 13 Norte 32 Norte 0 -- -- 80
2020-03-07 04:00:00 4.7 17 Norte 32 Norte 0 -- -- 82
2020-03-07 03:00:00 5 18 Norte 40 Norte 0 -- -- 83
2020-03-07 02:00:00 5.7 22 Norte 37 Norte 0 -- -- 81
2020-03-07 01:00:00 5.8 20 Norte 31 Norte 0 -- -- 83
2020-03-07 00:00:00 6.7 15 Norte 35 Norte 0 -- -- 79
2020-03-06 23:00:00 7.3 14 Norte 35 Norte 0 -- -- 76
2020-03-06 22:00:00 7.9 6 Norte 29 Noroeste 0 -- -- 75
2020-03-06 21:00:00 8.7 5 Este 28 Noroeste 0 -- -- 71
2020-03-06 20:00:00 9.8 14 Noroeste 35 Noroeste 0 -- -- 62
2020-03-06 19:00:00 11.3 11 Norte 28 Noroeste 0 -- -- 56
2020-03-06 18:00:00 12.5 17 Norte 32 Norte 0 -- -- 53
2020-03-06 17:00:00 13.5 8 Noroeste 36 Norte 0 -- -- 53
2020-03-06 16:00:00 12.9 17 Norte 36 Norte 0 -- -- 55
2020-03-06 15:00:00 12.4 17 Norte 33 Noroeste 0 -- -- 60
2020-03-06 14:00:00 11.9 14 Noroeste 32 Noroeste 0 -- -- 66
2020-03-06 13:00:00 10.9 15 Noroeste 37 Norte 0 -- -- 67
2020-03-06 12:00:00 10 14 Noroeste 31 Noroeste 0 -- -- 71
2020-03-06 11:00:00 8.8 17 Noroeste 37 Norte 0 -- -- 76
2020-03-06 10:00:00 7.9 16 Noroeste 34 Noroeste 0 -- -- 83
2020-03-06 09:00:00 7 14 Oeste 31 Noroeste 0 -- -- 93
2020-03-06 08:00:00 6.4 8 Noroeste 20 Noroeste 0 -- -- 97
2020-03-06 07:00:00 5.8 8 Oeste 24 Noroeste 0 -- -- 96
2020-03-06 06:00:00 5.3 8 Oeste 20 Oeste 0 -- -- 97
2020-03-06 05:00:00 5.1 6 Oeste 25 Oeste 0 -- -- 93
2020-03-06 04:00:00 4.7 6 Oeste 22 Oeste 0 -- -- 92
2020-03-06 03:00:00 4.5 2 Noroeste 6 Sudoeste 0 -- -- 93
2020-03-06 02:00:00 5.5 2 Sudoeste 14 Norte 0 -- -- 89
2020-03-06 01:00:00 6.7 8 Noroeste 26 Noroeste 0 -- -- 82
2020-03-06 00:00:00 7.2 13 Noroeste 30 Norte 0 -- -- 80
2020-03-05 23:00:00 7.9 12 Noroeste 28 Oeste 0 -- -- 78
2020-03-05 22:00:00 8.5 9 Norte 26 Noroeste 0 -- -- 75
2020-03-05 21:00:00 9.6 6 Noroeste 28 Noroeste 0 -- -- 76
2020-03-05 20:00:00 10.3 10 Noroeste 22 Noroeste 0 -- -- 69
2020-03-05 19:00:00 11.6 10 Noroeste 33 Noroeste 0 -- -- 64
2020-03-05 18:00:00 13.1 13 Noroeste 34 Oeste 0 -- -- 61
2020-03-05 17:00:00 13.5 15 Noroeste 38 Oeste 0 -- -- 60
2020-03-05 16:00:00 13.6 15 Noroeste 40 Sudoeste 0 -- -- 62
2020-03-05 15:00:00 13.5 13 Oeste 34 Noroeste 0 -- -- 63
2020-03-05 14:00:00 12.6 15 Noroeste 32 Noroeste 0 -- -- 69
2020-03-05 13:00:00 11.5 13 Noroeste 29 Sudoeste 0 -- -- 94
2020-03-05 12:00:00 10.8 9 Oeste 27 Sudoeste 0 -- -- 94
2020-03-05 11:00:00 10.5 9 Sudoeste 19 Sudoeste 0 -- -- 92
2020-03-05 10:00:00 10 12 Sudoeste 17 Sudoeste 0 -- -- 99
2020-03-05 09:00:00 8.7 7 Sudoeste 17 Sudoeste 0 -- -- 98
2020-03-05 08:00:00 8.6 5 Sudoeste 13 Sudoeste 0 -- -- 98
2020-03-05 07:00:00 9 3 Sudoeste 11 Oeste 0 -- -- 98
2020-03-05 06:00:00 9.1 3 Oeste 15 Noroeste 0 -- -- 97
2020-03-05 05:00:00 9.3 8 Oeste 22 Oeste 0 -- -- 98
2020-03-05 04:00:00 9.5 9 Oeste 16 Oeste 0 -- -- 97
2020-03-05 03:00:00 9.8 6 Oeste 19 Oeste 0 -- -- 95
2020-03-05 02:00:00 9.3 5 Oeste 10 Oeste 0 -- -- 90
2020-03-05 01:00:00 8.4 4 Oeste 7 Oeste 0 -- -- 88
2020-03-05 00:00:00 9.4 4 Noroeste 6 Noroeste 0 -- -- 85